createdAt,value
2023-04-27T00:01:44.072Z,7.35
2023-04-27T00:04:11.721Z,7.32
2023-04-27T00:06:38.684Z,7.33
2023-04-27T00:09:05.625Z,7.31
2023-04-27T00:11:32.973Z,7.30
2023-04-27T00:13:59.871Z,7.26
2023-04-27T00:16:27.140Z,7.25
2023-04-27T00:18:54.297Z,7.15
2023-04-27T00:21:21.280Z,7.20
2023-04-27T00:23:48.342Z,7.21
2023-04-27T00:26:15.276Z,7.20
2023-04-27T00:28:42.222Z,7.14
2023-04-27T00:31:09.218Z,7.17
2023-04-27T00:33:36.490Z,7.11
2023-04-27T00:36:03.594Z,7.11
2023-04-27T00:38:31.503Z,7.13
2023-04-27T00:41:07.452Z,7.10
2023-04-27T00:43:43.973Z,7.12
2023-04-27T00:46:13.648Z,7.12
2023-04-27T00:48:41.886Z,7.11
2023-04-27T00:51:09.270Z,7.09
2023-04-27T00:53:37.313Z,7.10
2023-04-27T00:56:06.140Z,7.09
2023-04-27T00:58:33.546Z,7.10
2023-04-27T01:01:01.468Z,7.08
2023-04-27T01:03:28.670Z,7.07
2023-04-27T01:05:57.062Z,7.05
2023-04-27T01:08:24.138Z,7.06
2023-04-27T01:10:51.079Z,7.06
2023-04-27T01:13:18.240Z,7.05
2023-04-27T01:15:45.138Z,7.05
2023-04-27T01:18:12.066Z,7.03
2023-04-27T01:20:39.096Z,7.05
2023-04-27T01:23:06.532Z,7.05
2023-04-27T01:25:33.505Z,7.01
2023-04-27T01:28:00.403Z,7.05
2023-04-27T01:30:29.112Z,7.04
2023-04-27T01:32:56.705Z,7.06
2023-04-27T01:35:24.787Z,7.03
2023-04-27T01:37:53.365Z,7.01
2023-04-27T01:40:20.248Z,7.00
2023-04-27T01:42:47.186Z,7.00
2023-04-27T01:45:14.082Z,6.98
2023-04-27T01:47:41.378Z,6.99
2023-04-27T01:50:08.773Z,7.00
2023-04-27T01:52:36.002Z,7.01
2023-04-27T01:55:03.389Z,7.04
2023-04-27T01:57:30.274Z,7.02
2023-04-27T01:59:57.551Z,7.04
2023-04-27T02:02:24.648Z,7.06
2023-04-27T02:04:52.062Z,7.10
2023-04-27T02:07:19.154Z,7.12
2023-04-27T02:09:46.046Z,7.07
2023-04-27T02:12:13.336Z,7.12
2023-04-27T02:14:40.215Z,7.11
2023-04-27T02:17:07.109Z,7.09
2023-04-27T02:19:34.070Z,7.09
2023-04-27T02:22:00.959Z,7.08
2023-04-27T02:24:28.085Z,7.05
2023-04-27T02:26:54.963Z,7.05
2023-04-27T02:29:21.885Z,7.04
2023-04-27T02:31:49.483Z,7.05
2023-04-27T02:34:16.724Z,7.04
2023-04-27T02:36:43.879Z,7.07
2023-04-27T02:39:10.780Z,7.07
2023-04-27T02:41:37.657Z,7.07
2023-04-27T02:44:04.796Z,7.05
2023-04-27T02:46:31.723Z,7.03
2023-04-27T02:48:58.686Z,7.02
2023-04-27T02:51:26.351Z,7.02
2023-04-27T02:53:54.474Z,7.02
2023-04-27T02:56:21.712Z,7.04
2023-04-27T02:58:49.295Z,7.03
2023-04-27T03:01:17.715Z,7.00
2023-04-27T03:03:48.536Z,7.01
2023-04-27T03:06:15.665Z,7.00
2023-04-27T03:08:42.661Z,6.92
2023-04-27T03:11:10.021Z,7.00
2023-04-27T03:13:42.236Z,7.00
2023-04-27T03:16:12.998Z,7.04
2023-04-27T03:18:40.500Z,7.00
2023-04-27T03:21:07.487Z,6.98
2023-04-27T03:23:35.063Z,7.00
2023-04-27T03:26:10.145Z,7.02
2023-04-27T03:28:37.356Z,6.99
2023-04-27T03:31:11.712Z,7.00
2023-04-27T03:33:39.814Z,7.05
2023-04-27T03:36:08.874Z,7.05
2023-04-27T03:38:37.076Z,7.04
2023-04-27T03:41:04.024Z,7.03
2023-04-27T03:43:31.126Z,7.01
2023-04-27T03:45:58.217Z,7.04
2023-04-27T03:48:25.248Z,7.03
2023-04-27T03:50:52.252Z,7.07
2023-04-27T03:53:19.856Z,6.99
2023-04-27T03:55:47.423Z,7.02
2023-04-27T03:58:14.428Z,7.02
2023-04-27T04:00:41.398Z,7.07
2023-04-27T04:03:08.995Z,7.03
2023-04-27T04:05:36.300Z,6.96
2023-04-27T04:08:03.731Z,6.97
2023-04-27T04:10:30.630Z,6.91
2023-04-27T04:12:57.528Z,6.87
2023-04-27T04:15:24.542Z,6.83
2023-04-27T04:17:51.556Z,6.75
2023-04-27T04:20:18.512Z,6.70
2023-04-27T04:22:45.783Z,6.67
2023-04-27T04:25:13.303Z,6.62
2023-04-27T04:27:41.348Z,6.61
2023-04-27T04:30:09.107Z,6.55
2023-04-27T04:32:38.141Z,6.58
2023-04-27T04:35:08.741Z,6.56
2023-04-27T04:37:35.933Z,6.55
2023-04-27T04:40:09.368Z,6.56
2023-04-27T04:42:39.359Z,6.56
2023-04-27T04:45:07.527Z,6.58
2023-04-27T04:47:34.695Z,6.55
2023-04-27T04:50:01.811Z,6.55
2023-04-27T04:52:28.709Z,6.55
2023-04-27T04:54:55.592Z,6.53
2023-04-27T04:57:22.486Z,6.51
2023-04-27T04:59:49.408Z,6.54
2023-04-27T05:02:16.768Z,6.49
2023-04-27T05:04:43.768Z,6.47
2023-04-27T05:07:14.557Z,6.48
2023-04-27T05:09:42.043Z,6.48
2023-04-27T05:12:09.230Z,6.47
2023-04-27T05:14:36.288Z,6.47
2023-04-27T05:17:03.481Z,6.50
2023-04-27T05:19:31.477Z,6.54
2023-04-27T05:22:01.476Z,6.51
2023-04-27T05:24:28.389Z,6.57
2023-04-27T05:26:55.484Z,6.59
2023-04-27T05:29:22.988Z,6.67
2023-04-27T05:31:50.033Z,6.68
2023-04-27T05:34:17.260Z,6.72
2023-04-27T05:36:44.215Z,6.77
2023-04-27T05:39:11.588Z,6.78
2023-04-27T05:41:38.979Z,6.85
2023-04-27T05:44:06.855Z,6.89
2023-04-27T05:46:34.626Z,6.92
2023-04-27T05:49:02.245Z,6.97
2023-04-27T05:51:29.477Z,7.02
2023-04-27T05:53:56.456Z,7.05
2023-04-27T05:56:23.588Z,7.14
2023-04-27T05:58:50.510Z,7.13
2023-04-27T06:01:17.633Z,7.18
2023-04-27T06:03:45.295Z,7.25
2023-04-27T06:06:12.879Z,7.28
2023-04-27T06:08:40.440Z,7.32
2023-04-27T06:11:07.440Z,7.39
2023-04-27T06:13:34.400Z,7.45
2023-04-27T06:16:02.326Z,7.56
2023-04-27T06:18:29.348Z,7.63
2023-04-27T06:21:02.662Z,7.70
2023-04-27T06:23:29.733Z,7.73
2023-04-27T06:25:56.725Z,7.80
2023-04-27T06:28:23.650Z,7.84
2023-04-27T06:30:50.540Z,7.87
2023-04-27T06:33:17.536Z,7.96
2023-04-27T06:35:47.449Z,8.06
2023-04-27T06:38:14.749Z,8.08
2023-04-27T06:40:41.711Z,8.13
2023-04-27T06:43:08.659Z,8.25
2023-04-27T06:45:36.494Z,8.30
2023-04-27T06:48:03.676Z,8.38
2023-04-27T06:50:31.464Z,8.45
2023-04-27T06:52:58.566Z,8.55
2023-04-27T06:55:25.924Z,8.62
2023-04-27T06:57:53.074Z,8.65
2023-04-27T07:00:20.344Z,8.66
2023-04-27T07:02:47.683Z,8.65
2023-04-27T07:05:14.659Z,8.68
2023-04-27T07:07:41.703Z,8.67
2023-04-27T07:10:09.533Z,8.71
2023-04-27T07:12:38.648Z,8.67
2023-04-27T07:15:07.432Z,8.67
2023-04-27T07:17:35.949Z,8.64
2023-04-27T07:20:07.594Z,8.63
2023-04-27T07:22:34.611Z,8.67
2023-04-27T07:25:01.514Z,8.67
2023-04-27T07:27:28.621Z,8.68
2023-04-27T07:29:55.496Z,8.72
2023-04-27T07:32:22.922Z,8.77
2023-04-27T07:34:54.140Z,8.83
2023-04-27T07:37:23.139Z,8.90
2023-04-27T07:39:54.680Z,8.97
2023-04-27T07:42:25.319Z,9.06
2023-04-27T07:44:52.780Z,9.12
2023-04-27T07:47:20.068Z,9.15
2023-04-27T07:49:47.429Z,9.19
2023-04-27T07:52:14.836Z,9.17
2023-04-27T07:54:41.780Z,9.15
2023-04-27T07:57:11.854Z,9.15
2023-04-27T07:59:39.372Z,9.20
2023-04-27T08:02:17.701Z,9.20
2023-04-27T08:04:46.955Z,9.20
2023-04-27T08:07:17.255Z,9.32
2023-04-27T08:09:45.145Z,9.36
2023-04-27T08:12:12.111Z,9.34
2023-04-27T08:14:39.167Z,9.38
2023-04-27T08:17:06.581Z,9.46
2023-04-27T08:19:33.523Z,9.53
2023-04-27T08:22:01.343Z,9.54
2023-04-27T08:24:28.224Z,9.54
2023-04-27T08:26:55.395Z,9.56
2023-04-27T08:29:27.724Z,9.57
2023-04-27T08:31:59.769Z,9.59
2023-04-27T08:34:28.171Z,9.53
2023-04-27T08:36:56.001Z,9.60
2023-04-27T08:39:24.233Z,9.59
2023-04-27T08:41:51.153Z,9.59
2023-04-27T08:44:18.720Z,9.63
2023-04-27T08:46:46.050Z,9.69
2023-04-27T08:49:16.025Z,9.71
2023-04-27T08:51:44.553Z,9.69
2023-04-27T08:54:11.634Z,9.72
2023-04-27T08:56:39.396Z,9.70
2023-04-27T08:59:15.570Z,9.74
2023-04-27T09:01:49.187Z,9.70
2023-04-27T09:04:17.058Z,9.67
2023-04-27T09:06:44.080Z,9.69
2023-04-27T09:09:11.607Z,9.65
2023-04-27T09:11:40.064Z,9.70
2023-04-27T09:14:20.144Z,9.71
2023-04-27T09:16:59.708Z,9.79
2023-04-27T09:19:31.174Z,9.80
2023-04-27T09:22:11.272Z,9.82
2023-04-27T09:24:38.563Z,9.83
2023-04-27T09:27:07.662Z,9.86
2023-04-27T09:29:39.154Z,9.83
2023-04-27T09:32:21.102Z,9.81
2023-04-27T09:34:48.326Z,9.92
2023-04-27T09:37:16.112Z,10.02
2023-04-27T09:39:43.536Z,10.07
2023-04-27T09:42:12.959Z,10.15
2023-04-27T09:44:40.175Z,10.22
2023-04-27T09:47:07.822Z,10.25
2023-04-27T09:49:35.228Z,10.33
2023-04-27T09:52:02.108Z,10.31
2023-04-27T09:54:34.074Z,10.22
2023-04-27T09:57:32.558Z,10.30
2023-04-27T10:00:21.460Z,10.30
2023-04-27T10:03:18.216Z,10.29
2023-04-27T10:06:28.901Z,10.33
2023-04-27T10:08:57.693Z,10.27
2023-04-27T10:11:41.875Z,10.29
2023-04-27T10:14:17.682Z,10.36
2023-04-27T10:16:58.406Z,10.31
2023-04-27T10:19:26.068Z,10.32
2023-04-27T10:22:03.946Z,10.32
2023-04-27T10:24:37.555Z,10.37
2023-04-27T10:27:09.882Z,10.39
2023-04-27T10:29:42.854Z,10.43
2023-04-27T10:32:13.960Z,10.48
2023-04-27T10:34:41.985Z,10.51
2023-04-27T10:37:12.188Z,10.48
2023-04-27T10:39:47.982Z,10.49
2023-04-27T10:42:28.816Z,10.52
2023-04-27T10:44:59.290Z,10.52
2023-04-27T10:47:38.329Z,10.54
2023-04-27T10:50:07.874Z,10.58
2023-04-27T10:52:35.043Z,10.65
2023-04-27T10:55:32.140Z,10.65
2023-04-27T10:58:00.487Z,10.66
2023-04-27T11:00:45.055Z,10.70
2023-04-27T11:03:24.324Z,10.68
2023-04-27T11:06:03.072Z,10.75
2023-04-27T11:08:31.036Z,10.76
2023-04-27T11:10:58.115Z,10.82
2023-04-27T11:13:28.620Z,10.82
2023-04-27T11:15:58.493Z,10.75
2023-04-27T11:18:30.625Z,10.80
2023-04-27T11:21:15.864Z,10.80
2023-04-27T11:23:43.556Z,10.78
2023-04-27T11:26:18.208Z,10.81
2023-04-27T11:28:59.235Z,10.76
2023-04-27T11:31:38.932Z,10.72
2023-04-27T11:34:08.555Z,10.71
2023-04-27T11:36:36.329Z,10.65
2023-04-27T11:39:06.620Z,10.67
2023-04-27T11:41:37.924Z,10.65
2023-04-27T11:44:10.329Z,10.69
2023-04-27T11:46:38.278Z,10.80
2023-04-27T11:49:09.061Z,10.81
2023-04-27T11:51:39.453Z,10.84
2023-04-27T11:54:07.726Z,10.87
2023-04-27T11:56:40.809Z,10.86
2023-04-27T11:59:23.414Z,10.89
2023-04-27T12:01:51.986Z,10.87
2023-04-27T12:04:19.441Z,10.83
2023-04-27T12:06:47.172Z,10.85
2023-04-27T12:09:14.252Z,10.89
2023-04-27T12:11:41.369Z,10.89
2023-04-27T12:14:08.545Z,10.88
2023-04-27T12:16:35.891Z,10.89
2023-04-27T12:19:03.349Z,10.90
2023-04-27T12:21:30.350Z,10.96
2023-04-27T12:23:57.264Z,10.97
2023-04-27T12:26:24.334Z,11.02
2023-04-27T12:28:51.513Z,11.06
2023-04-27T12:31:24.733Z,11.10
2023-04-27T12:33:54.256Z,11.15
2023-04-27T12:36:21.145Z,11.17
2023-04-27T12:38:48.112Z,11.18
2023-04-27T12:41:15.311Z,11.23
2023-04-27T12:43:43.852Z,11.25
2023-04-27T12:46:10.918Z,11.26
2023-04-27T12:48:37.884Z,11.27
2023-04-27T12:51:05.594Z,11.31
2023-04-27T12:53:32.934Z,11.32
2023-04-27T12:56:02.222Z,11.33
2023-04-27T12:58:29.109Z,11.36
2023-04-27T13:01:01.129Z,11.40
2023-04-27T13:03:28.220Z,11.41
2023-04-27T13:05:55.250Z,11.44
2023-04-27T13:08:22.208Z,11.46
2023-04-27T13:10:49.318Z,11.47
2023-04-27T13:13:16.227Z,11.44
2023-04-27T13:15:43.243Z,11.43
2023-04-27T13:18:10.612Z,11.42
2023-04-27T13:20:38.159Z,11.44
2023-04-27T13:23:06.158Z,11.46
2023-04-27T13:25:33.012Z,11.46
2023-04-27T13:27:59.888Z,11.51
2023-04-27T13:30:26.848Z,11.49
2023-04-27T13:32:54.123Z,11.49
2023-04-27T13:35:21.292Z,11.51
2023-04-27T13:37:48.605Z,11.51
2023-04-27T13:40:15.764Z,11.51
2023-04-27T13:42:42.671Z,11.52
2023-04-27T13:45:10.643Z,11.55
2023-04-27T13:47:37.704Z,11.51
2023-04-27T13:50:10.816Z,11.51
2023-04-27T13:52:38.990Z,11.47
2023-04-27T13:55:09.359Z,11.43
2023-04-27T13:57:36.370Z,11.36
2023-04-27T14:00:08.144Z,11.32
2023-04-27T14:02:35.242Z,11.26
2023-04-27T14:05:02.359Z,11.25
2023-04-27T14:07:30.885Z,11.35
2023-04-27T14:09:58.429Z,11.36
2023-04-27T14:12:25.360Z,11.40
2023-04-27T14:14:52.216Z,11.47
2023-04-27T14:17:19.149Z,11.56
2023-04-27T14:19:46.106Z,11.69
2023-04-27T14:22:13.365Z,11.74
2023-04-27T14:24:40.244Z,11.81
2023-04-27T14:27:10.073Z,11.80
2023-04-27T14:29:36.989Z,11.90
2023-04-27T14:32:04.952Z,11.90
2023-04-27T14:34:31.976Z,11.96
2023-04-27T14:36:58.818Z,11.98
2023-04-27T14:39:27.856Z,11.96
2023-04-27T14:41:54.949Z,12.00
2023-04-27T14:44:21.842Z,12.04
2023-04-27T14:46:48.796Z,11.99
2023-04-27T14:49:16.169Z,12.04
2023-04-27T14:51:43.751Z,12.03
2023-04-27T14:54:11.497Z,12.08
2023-04-27T14:56:38.395Z,12.08
2023-04-27T14:59:05.958Z,12.09
2023-04-27T15:01:32.885Z,12.21
2023-04-27T15:03:59.931Z,12.22
2023-04-27T15:06:28.878Z,12.22
2023-04-27T15:08:56.300Z,12.23
2023-04-27T15:11:23.871Z,12.30
2023-04-27T15:13:51.107Z,12.35
2023-04-27T15:16:18.186Z,12.33
2023-04-27T15:18:45.126Z,12.38
2023-04-27T15:21:12.361Z,12.46
2023-04-27T15:23:39.837Z,12.49
2023-04-27T15:26:06.751Z,12.49
2023-04-27T15:28:34.265Z,12.51
2023-04-27T15:31:01.252Z,12.55
2023-04-27T15:33:28.213Z,12.52
2023-04-27T15:35:55.246Z,12.48
2023-04-27T15:38:22.307Z,12.40
2023-04-27T15:40:49.493Z,12.31
2023-04-27T15:43:16.700Z,12.34
2023-04-27T15:45:44.345Z,12.35
2023-04-27T15:48:12.789Z,12.27
2023-04-27T15:50:40.565Z,12.28
2023-04-27T15:53:07.533Z,12.19
2023-04-27T15:55:34.541Z,12.18
2023-04-27T15:58:01.395Z,12.15
2023-04-27T16:00:28.412Z,12.10
2023-04-27T16:02:55.437Z,12.06
2023-04-27T16:05:22.580Z,12.06
2023-04-27T16:07:49.631Z,12.04
2023-04-27T16:10:16.776Z,12.05
2023-04-27T16:12:43.768Z,12.00
2023-04-27T16:15:11.795Z,12.00
2023-04-27T16:17:39.341Z,12.02
2023-04-27T16:20:07.661Z,12.00
2023-04-27T16:22:35.984Z,12.02
2023-04-27T16:25:04.688Z,12.04
2023-04-27T16:27:31.838Z,12.03
2023-04-27T16:29:59.140Z,12.06
2023-04-27T16:32:26.946Z,12.06
2023-04-27T16:34:54.032Z,12.00
2023-04-27T16:37:20.928Z,12.04
2023-04-27T16:39:47.870Z,12.05
2023-04-27T16:42:20.274Z,12.06
2023-04-27T16:44:47.972Z,12.07
2023-04-27T16:47:15.520Z,12.01
2023-04-27T16:49:44.377Z,11.98
2023-04-27T16:52:12.643Z,11.98
2023-04-27T16:54:39.628Z,11.89
2023-04-27T16:57:08.016Z,11.86
2023-04-27T16:59:35.466Z,11.83
2023-04-27T17:02:16.406Z,11.79
2023-04-27T17:04:48.559Z,11.68
2023-04-27T17:07:15.499Z,11.74
2023-04-27T17:09:42.532Z,11.68
2023-04-27T17:12:12.520Z,11.62
2023-04-27T17:14:39.881Z,11.61
2023-04-27T17:17:07.038Z,11.58
2023-04-27T17:19:34.082Z,11.58
2023-04-27T17:22:01.035Z,11.48
2023-04-27T17:24:27.941Z,11.47
2023-04-27T17:26:55.225Z,11.42
2023-04-27T17:29:22.248Z,11.41
2023-04-27T17:31:50.498Z,11.36
2023-04-27T17:34:17.993Z,11.41
2023-04-27T17:36:45.360Z,11.32
2023-04-27T17:39:15.617Z,11.33
2023-04-27T17:41:45.996Z,11.28
2023-04-27T17:44:13.032Z,11.18
2023-04-27T17:46:49.452Z,11.26
2023-04-27T17:49:18.401Z,11.23
2023-04-27T17:51:46.525Z,11.19
2023-04-27T17:54:13.588Z,11.17
2023-04-27T17:56:40.629Z,11.13
2023-04-27T17:59:08.074Z,11.03
2023-04-27T18:01:35.549Z,10.99
2023-04-27T18:04:04.592Z,10.95
2023-04-27T18:06:32.313Z,10.94
2023-04-27T18:08:59.255Z,10.93
2023-04-27T18:11:26.193Z,10.85
2023-04-27T18:13:55.139Z,10.87
2023-04-27T18:16:22.254Z,10.84
2023-04-27T18:18:49.178Z,10.82
2023-04-27T18:21:16.188Z,10.82
2023-04-27T18:23:44.663Z,10.81
2023-04-27T18:26:11.984Z,10.71
2023-04-27T18:28:40.374Z,10.72
2023-04-27T18:31:15.417Z,10.63
2023-04-27T18:33:43.620Z,10.54
2023-04-27T18:36:10.621Z,10.53
2023-04-27T18:38:37.979Z,10.42
2023-04-27T18:41:05.336Z,10.34
2023-04-27T18:43:35.889Z,10.27
2023-04-27T18:46:04.133Z,10.24
2023-04-27T18:48:31.084Z,10.20
2023-04-27T18:50:58.117Z,10.20
2023-04-27T18:53:27.217Z,10.15
2023-04-27T18:55:54.866Z,10.12
2023-04-27T18:58:22.422Z,10.06
2023-04-27T19:00:49.440Z,10.03
2023-04-27T19:03:16.816Z,10.00
2023-04-27T19:05:44.329Z,9.95
2023-04-27T19:08:11.535Z,9.90
2023-04-27T19:10:41.331Z,9.87
2023-04-27T19:13:08.385Z,9.82
2023-04-27T19:15:35.768Z,9.80
2023-04-27T19:18:09.923Z,9.72
2023-04-27T19:20:37.971Z,9.66
2023-04-27T19:23:05.526Z,9.71
2023-04-27T19:25:32.548Z,9.71
2023-04-27T19:28:00.658Z,9.69
2023-04-27T19:30:27.956Z,9.67
2023-04-27T19:32:54.980Z,9.63
2023-04-27T19:35:24.029Z,9.54
2023-04-27T19:37:51.298Z,9.55
2023-04-27T19:40:18.688Z,9.47
2023-04-27T19:42:45.850Z,9.46
2023-04-27T19:45:12.918Z,9.41
2023-04-27T19:47:40.032Z,9.36
2023-04-27T19:50:07.913Z,9.36
2023-04-27T19:52:34.929Z,9.31
2023-04-27T19:55:01.944Z,9.30
2023-04-27T19:57:29.183Z,9.30
2023-04-27T19:59:57.200Z,9.28
2023-04-27T20:02:24.427Z,9.24
2023-04-27T20:04:51.934Z,9.18
2023-04-27T20:07:19.150Z,9.21
2023-04-27T20:09:46.099Z,9.15
2023-04-27T20:12:34.894Z,9.13
2023-04-27T20:15:03.209Z,9.10
2023-04-27T20:17:31.533Z,9.10
2023-04-27T20:19:58.558Z,9.09
2023-04-27T20:22:25.902Z,9.05
2023-04-27T20:24:53.195Z,9.09
2023-04-27T20:27:20.602Z,9.11
2023-04-27T20:29:48.428Z,9.05
2023-04-27T20:32:15.336Z,9.04
2023-04-27T20:34:42.221Z,9.01
2023-04-27T20:37:10.138Z,9.02
2023-04-27T20:39:38.301Z,8.98
2023-04-27T20:42:06.041Z,8.93
2023-04-27T20:44:34.188Z,8.90
2023-04-27T20:47:01.681Z,8.95
2023-04-27T20:49:34.883Z,8.99
2023-04-27T20:52:03.307Z,8.95
2023-04-27T20:54:33.057Z,8.91
2023-04-27T20:57:03.446Z,8.90
2023-04-27T20:59:30.431Z,8.94
2023-04-27T21:01:57.358Z,8.84
2023-04-27T21:04:24.347Z,8.86
2023-04-27T21:06:51.617Z,8.85
2023-04-27T21:09:18.609Z,8.86
2023-04-27T21:11:45.695Z,8.85
2023-04-27T21:14:12.733Z,8.78
2023-04-27T21:16:39.708Z,8.80
2023-04-27T21:19:08.983Z,8.73
2023-04-27T21:21:35.853Z,8.67
2023-04-27T21:24:08.244Z,8.69
2023-04-27T21:26:35.915Z,8.72
2023-04-27T21:29:05.763Z,8.68
2023-04-27T21:31:33.779Z,8.64
2023-04-27T21:34:02.326Z,8.68
2023-04-27T21:36:30.007Z,8.63
2023-04-27T21:38:57.893Z,8.67
2023-04-27T21:41:24.820Z,8.67
2023-04-27T21:43:51.826Z,8.65
2023-04-27T21:46:18.892Z,8.66
2023-04-27T21:48:45.850Z,8.68
2023-04-27T21:51:12.744Z,8.70
2023-04-27T21:53:39.977Z,8.69
2023-04-27T21:56:07.543Z,8.63
2023-04-27T21:58:34.636Z,8.56
2023-04-27T22:01:01.747Z,8.58
2023-04-27T22:03:29.057Z,8.55
2023-04-27T22:05:57.814Z,8.56
2023-04-27T22:08:24.915Z,8.58
2023-04-27T22:10:52.328Z,8.55
2023-04-27T22:13:19.875Z,8.53
2023-04-27T22:15:48.722Z,8.51
2023-04-27T22:18:15.911Z,8.55
2023-04-27T22:20:43.421Z,8.57
2023-04-27T22:23:11.032Z,8.52
2023-04-27T22:25:37.967Z,8.58
2023-04-27T22:28:05.136Z,8.56
2023-04-27T22:30:32.117Z,8.51
2023-04-27T22:32:59.378Z,8.47
2023-04-27T22:35:27.811Z,8.46
2023-04-27T22:38:01.283Z,8.46
2023-04-27T22:40:28.695Z,8.45
2023-04-27T22:42:56.315Z,8.45
2023-04-27T22:45:24.518Z,8.45
2023-04-27T22:47:51.453Z,8.42
2023-04-27T22:50:19.184Z,8.43
2023-04-27T22:52:46.104Z,8.47
2023-04-27T22:55:13.378Z,8.50
2023-04-27T22:57:41.918Z,8.48
2023-04-27T23:00:11.763Z,8.50
2023-04-27T23:02:40.812Z,8.50
2023-04-27T23:05:09.060Z,8.52
2023-04-27T23:07:36.411Z,8.51
2023-04-27T23:10:03.782Z,8.56
2023-04-27T23:12:31.599Z,8.55
2023-04-27T23:14:59.475Z,8.55
2023-04-27T23:17:31.102Z,8.56
2023-04-27T23:20:02.263Z,8.55
2023-04-27T23:22:29.542Z,8.52
2023-04-27T23:24:56.451Z,8.54
2023-04-27T23:27:25.099Z,8.54
2023-04-27T23:29:53.010Z,8.54
2023-04-27T23:32:20.913Z,8.55
2023-04-27T23:34:47.888Z,8.47
2023-04-27T23:37:14.783Z,8.50
2023-04-27T23:39:41.648Z,8.54
2023-04-27T23:42:08.577Z,8.54
2023-04-27T23:44:35.634Z,8.57
2023-04-27T23:47:02.511Z,8.56
2023-04-27T23:49:29.420Z,8.54
2023-04-27T23:51:56.357Z,8.53
2023-04-27T23:54:23.582Z,8.52
2023-04-27T23:56:51.997Z,8.56
2023-04-27T23:59:19.120Z,8.55
